createdAt,value
2022-08-19T00:02:16.672Z,17.31
2022-08-19T00:04:47.558Z,17.30
2022-08-19T00:07:15.253Z,17.32
2022-08-19T00:09:42.751Z,17.28
2022-08-19T00:12:11.257Z,17.27
2022-08-19T00:14:39.718Z,17.26
2022-08-19T00:17:08.034Z,17.27
2022-08-19T00:19:37.174Z,17.25
2022-08-19T00:22:06.106Z,17.27
2022-08-19T00:24:34.197Z,17.27
2022-08-19T00:27:26.171Z,17.18
2022-08-19T00:29:52.655Z,17.18
2022-08-19T00:32:20.751Z,17.14
2022-08-19T00:34:48.303Z,17.11
2022-08-19T00:37:15.889Z,17.07
2022-08-19T00:39:43.434Z,17.05
2022-08-19T00:42:10.949Z,17.06
2022-08-19T00:44:38.541Z,17.05
2022-08-19T00:47:06.955Z,17.05
2022-08-19T00:49:57.663Z,16.79
2022-08-19T00:52:30.863Z,17.02
2022-08-19T00:54:59.840Z,17.00
2022-08-19T00:57:36.373Z,16.91
2022-08-19T01:00:09.375Z,16.99
2022-08-19T01:02:36.911Z,16.97
2022-08-19T01:05:08.332Z,16.97
2022-08-19T01:07:38.259Z,17.01
2022-08-19T01:10:08.902Z,16.98
2022-08-19T01:12:37.223Z,16.98
2022-08-19T01:15:07.445Z,16.98
2022-08-19T01:17:36.501Z,17.03
2022-08-19T01:20:05.919Z,17.02
2022-08-19T01:22:45.034Z,17.00
2022-08-19T01:25:15.077Z,16.89
2022-08-19T01:27:45.846Z,16.97
2022-08-19T01:30:21.347Z,16.94
2022-08-19T01:32:48.911Z,16.88
2022-08-19T01:35:18.973Z,16.85
2022-08-19T01:37:52.815Z,16.85
2022-08-19T01:40:22.965Z,16.86
2022-08-19T01:42:51.751Z,16.88
2022-08-19T01:45:20.664Z,16.87
2022-08-19T01:47:52.670Z,16.86
2022-08-19T01:50:29.683Z,16.84
2022-08-19T01:53:03.644Z,16.88
2022-08-19T01:55:40.917Z,16.91
2022-08-19T01:58:24.698Z,16.90
2022-08-19T02:00:52.566Z,16.86
2022-08-19T02:03:20.075Z,16.87
2022-08-19T02:05:47.569Z,16.87
2022-08-19T02:08:15.080Z,16.86
2022-08-19T02:10:44.216Z,16.82
2022-08-19T02:13:14.304Z,16.80
2022-08-19T02:15:42.121Z,16.76
2022-08-19T02:18:09.734Z,16.81
2022-08-19T02:20:38.659Z,16.76
2022-08-19T02:23:13.575Z,16.77
2022-08-19T02:25:45.278Z,16.74
2022-08-19T02:28:17.936Z,16.69
2022-08-19T02:30:46.390Z,16.67
2022-08-19T02:33:13.977Z,16.62
2022-08-19T02:35:48.602Z,16.65
2022-08-19T02:38:27.635Z,16.64
2022-08-19T02:41:01.497Z,16.63
2022-08-19T02:43:33.638Z,16.65
2022-08-19T02:46:03.149Z,16.55
2022-08-19T02:48:31.013Z,16.63
2022-08-19T02:50:58.495Z,16.62
2022-08-19T02:53:29.681Z,16.51
2022-08-19T02:55:57.181Z,16.50
2022-08-19T02:58:25.445Z,16.54
2022-08-19T03:00:57.886Z,16.51
2022-08-19T03:03:25.467Z,16.48
2022-08-19T03:05:56.970Z,16.51
2022-08-19T03:08:26.833Z,16.50
2022-08-19T03:10:54.853Z,16.49
2022-08-19T03:13:22.529Z,16.47
2022-08-19T03:15:50.246Z,16.45
2022-08-19T03:18:18.440Z,16.41
2022-08-19T03:20:48.986Z,16.42
2022-08-19T03:23:17.897Z,16.41
2022-08-19T03:25:58.116Z,16.38
2022-08-19T03:28:34.374Z,16.31
2022-08-19T03:31:05.457Z,16.35
2022-08-19T03:33:53.817Z,16.32
2022-08-19T03:36:26.758Z,16.32
2022-08-19T03:38:59.856Z,16.33
2022-08-19T03:41:44.487Z,16.31
2022-08-19T03:44:18.198Z,16.31
2022-08-19T03:46:47.826Z,16.26
2022-08-19T03:49:15.509Z,16.25
2022-08-19T03:51:44.718Z,16.23
2022-08-19T03:54:14.494Z,16.20
2022-08-19T03:56:44.807Z,16.13
2022-08-19T03:59:15.434Z,16.24
2022-08-19T04:01:43.256Z,16.25
2022-08-19T04:04:11.171Z,16.26
2022-08-19T04:06:40.343Z,16.25
2022-08-19T04:09:11.038Z,16.23
2022-08-19T04:11:50.878Z,16.21
2022-08-19T04:14:21.651Z,16.21
2022-08-19T04:16:50.190Z,16.20
2022-08-19T04:19:19.093Z,16.18
2022-08-19T04:21:49.721Z,16.15
2022-08-19T04:24:18.150Z,16.13
2022-08-19T04:26:46.459Z,16.10
2022-08-19T04:29:17.421Z,16.08
2022-08-19T04:31:46.163Z,16.08
2022-08-19T04:34:17.164Z,16.13
2022-08-19T04:36:46.459Z,16.13
2022-08-19T04:39:17.573Z,16.17
2022-08-19T04:42:03.837Z,16.17
2022-08-19T04:44:35.182Z,16.18
2022-08-19T04:47:11.396Z,16.15
2022-08-19T04:49:39.707Z,16.13
2022-08-19T04:52:07.205Z,16.13
2022-08-19T04:54:38.747Z,16.19
2022-08-19T04:57:08.423Z,16.20
2022-08-19T04:59:36.782Z,16.23
2022-08-19T05:02:05.591Z,16.27
2022-08-19T05:04:33.794Z,16.33
2022-08-19T05:07:02.524Z,16.38
2022-08-19T05:09:42.174Z,16.42
2022-08-19T05:12:20.155Z,16.52
2022-08-19T05:14:48.871Z,16.60
2022-08-19T05:17:37.468Z,16.68
2022-08-19T05:20:24.253Z,16.78
2022-08-19T05:22:51.908Z,16.88
2022-08-19T05:25:22.172Z,17.01
2022-08-19T05:27:50.107Z,17.11
2022-08-19T05:30:18.642Z,17.21
2022-08-19T05:32:52.051Z,17.25
2022-08-19T05:35:24.347Z,17.35
2022-08-19T05:37:52.673Z,17.41
2022-08-19T05:40:26.807Z,17.28
2022-08-19T05:42:55.120Z,17.56
2022-08-19T05:45:22.995Z,17.66
2022-08-19T05:47:50.490Z,17.83
2022-08-19T05:50:18.574Z,17.88
2022-08-19T05:52:54.293Z,17.97
2022-08-19T05:55:23.302Z,18.02
2022-08-19T05:57:50.832Z,18.10
2022-08-19T06:00:22.661Z,18.15
2022-08-19T06:02:52.734Z,18.16
2022-08-19T06:05:21.110Z,18.18
2022-08-19T06:07:49.897Z,18.19
2022-08-19T06:10:17.565Z,18.28
2022-08-19T06:12:45.059Z,18.18
2022-08-19T06:15:15.344Z,18.17
2022-08-19T06:17:45.274Z,18.08
2022-08-19T06:20:15.440Z,18.17
2022-08-19T06:22:45.457Z,18.21
2022-08-19T06:25:15.187Z,18.26
2022-08-19T06:28:14.547Z,18.26
2022-08-19T06:30:32.653Z,18.30
2022-08-19T06:33:00.200Z,18.24
2022-08-19T06:35:27.996Z,18.24
2022-08-19T06:37:55.662Z,18.23
2022-08-19T06:40:23.478Z,18.19
2022-08-19T06:42:54.475Z,18.27
2022-08-19T06:45:24.616Z,18.34
2022-08-19T06:47:55.171Z,18.46
2022-08-19T06:50:22.940Z,18.37
2022-08-19T06:52:53.114Z,18.52
2022-08-19T06:55:20.997Z,18.47
2022-08-19T06:57:49.174Z,18.56
2022-08-19T07:00:17.284Z,18.76
2022-08-19T07:02:49.787Z,18.82
2022-08-19T07:05:24.919Z,18.81
2022-08-19T07:07:52.404Z,18.94
2022-08-19T07:10:20.406Z,19.05
2022-08-19T07:12:48.574Z,19.03
2022-08-19T07:15:16.924Z,19.15
2022-08-19T07:17:46.732Z,19.28
2022-08-19T07:20:20.002Z,19.22
2022-08-19T07:22:47.521Z,19.25
2022-08-19T07:25:15.150Z,19.18
2022-08-19T07:27:54.252Z,19.22
2022-08-19T07:30:23.306Z,19.31
2022-08-19T07:32:53.944Z,19.42
2022-08-19T07:35:21.528Z,19.46
2022-08-19T07:37:49.431Z,19.59
2022-08-19T07:40:17.350Z,19.45
2022-08-19T07:42:45.075Z,19.57
2022-08-19T07:45:12.698Z,19.72
2022-08-19T07:47:48.734Z,19.71
2022-08-19T07:50:20.312Z,19.72
2022-08-19T07:52:48.823Z,19.85
2022-08-19T07:55:41.471Z,19.87
2022-08-19T07:58:06.930Z,20.09
2022-08-19T08:00:34.737Z,20.17
2022-08-19T08:03:02.193Z,20.24
2022-08-19T08:05:47.095Z,20.39
2022-08-19T08:08:32.441Z,20.55
2022-08-19T08:11:00.856Z,20.43
2022-08-19T08:13:29.171Z,20.57
2022-08-19T08:15:57.418Z,20.62
2022-08-19T08:18:30.403Z,20.62
2022-08-19T08:20:59.379Z,20.61
2022-08-19T08:23:27.465Z,20.75
2022-08-19T08:25:59.055Z,20.91
2022-08-19T08:28:29.821Z,20.97
2022-08-19T08:30:58.979Z,21.14
2022-08-19T08:33:34.822Z,21.46
2022-08-19T08:36:09.684Z,21.74
2022-08-19T08:38:40.319Z,21.79
2022-08-19T08:41:20.473Z,21.93
2022-08-19T08:43:53.240Z,22.28
2022-08-19T08:46:43.222Z,22.59
2022-08-19T08:49:57.137Z,22.59
2022-08-19T08:52:32.006Z,22.63
2022-08-19T08:55:10.140Z,22.87
2022-08-19T08:57:54.544Z,23.01
2022-08-19T09:00:32.435Z,22.85
2022-08-19T09:03:01.755Z,22.94
2022-08-19T09:05:56.495Z,22.90
2022-08-19T09:08:44.256Z,22.82
2022-08-19T09:11:42.675Z,22.87
2022-08-19T09:14:51.528Z,23.15
2022-08-19T09:17:29.076Z,23.57
2022-08-19T09:20:11.954Z,23.70
2022-08-19T09:22:44.969Z,23.31
2022-08-19T09:25:16.367Z,23.46
2022-08-19T09:27:44.886Z,23.12
2022-08-19T09:30:19.920Z,23.14
2022-08-19T09:32:53.081Z,23.26
2022-08-19T09:35:23.649Z,23.16
2022-08-19T09:37:57.710Z,23.09
2022-08-19T09:40:35.474Z,23.08
2022-08-19T09:43:11.467Z,22.96
2022-08-19T09:45:41.557Z,22.78
2022-08-19T09:48:09.553Z,22.95
2022-08-19T09:50:51.502Z,23.03
2022-08-19T09:53:20.439Z,23.26
2022-08-19T09:55:47.993Z,23.24
2022-08-19T09:58:15.648Z,23.07
2022-08-19T10:00:43.140Z,23.18
2022-08-19T10:03:12.499Z,23.18
2022-08-19T10:05:54.653Z,23.25
2022-08-19T10:08:36.658Z,23.27
2022-08-19T10:11:28.600Z,23.33
2022-08-19T10:13:54.686Z,23.52
2022-08-19T10:16:25.922Z,23.80
2022-08-19T10:18:58.981Z,24.53
2022-08-19T10:21:32.364Z,25.04
2022-08-19T10:24:04.775Z,25.65
2022-08-19T10:26:38.602Z,25.84
2022-08-19T10:29:09.250Z,25.77
2022-08-19T10:32:00.579Z,25.21
2022-08-19T10:34:28.009Z,24.85
2022-08-19T10:37:00.747Z,25.29
2022-08-19T10:39:31.279Z,25.20
2022-08-19T10:41:59.877Z,25.49
2022-08-19T10:44:32.646Z,25.24
2022-08-19T10:47:01.030Z,25.06
2022-08-19T10:49:28.976Z,25.00
2022-08-19T10:52:19.029Z,25.10
2022-08-19T10:55:08.198Z,25.26
2022-08-19T10:57:59.363Z,25.69
2022-08-19T11:00:26.656Z,26.13
2022-08-19T11:02:54.327Z,26.93
2022-08-19T11:05:24.333Z,26.39
2022-08-19T11:07:52.999Z,26.39
2022-08-19T11:10:22.647Z,25.84
2022-08-19T11:12:55.044Z,25.68
2022-08-19T11:15:23.071Z,25.28
2022-08-19T11:17:51.602Z,24.95
2022-08-19T11:20:19.184Z,24.97
2022-08-19T11:22:46.687Z,24.67
2022-08-19T11:25:16.230Z,24.30
2022-08-19T11:27:44.582Z,24.02
2022-08-19T11:30:14.760Z,23.88
2022-08-19T11:32:47.244Z,23.80
2022-08-19T11:35:17.727Z,23.83
2022-08-19T11:37:45.275Z,23.81
2022-08-19T11:40:13.471Z,23.69
2022-08-19T11:42:59.288Z,23.71
2022-08-19T11:45:30.167Z,24.09
2022-08-19T11:47:58.075Z,24.19
2022-08-19T11:50:25.877Z,24.34
2022-08-19T11:52:58.321Z,24.55
2022-08-19T11:55:25.979Z,24.46
2022-08-19T11:57:53.705Z,24.54
2022-08-19T12:00:21.366Z,24.77
2022-08-19T12:02:48.895Z,24.71
2022-08-19T12:05:16.433Z,24.72
2022-08-19T12:07:44.722Z,24.80
2022-08-19T12:10:12.532Z,25.21
2022-08-19T12:12:43.330Z,25.13
2022-08-19T12:15:12.913Z,25.19
2022-08-19T12:17:41.100Z,25.38
2022-08-19T12:20:11.357Z,25.65
2022-08-19T12:22:40.358Z,25.81
2022-08-19T12:25:08.460Z,26.01
2022-08-19T12:27:40.658Z,26.40
2022-08-19T12:30:11.997Z,26.34
2022-08-19T12:32:40.345Z,26.33
2022-08-19T12:35:11.369Z,26.32
2022-08-19T12:37:39.810Z,26.65
2022-08-19T12:40:08.087Z,26.65
2022-08-19T12:42:35.802Z,26.66
2022-08-19T12:45:03.425Z,26.56
2022-08-19T12:47:34.090Z,26.46
2022-08-19T12:50:09.403Z,26.32
2022-08-19T12:52:39.250Z,26.07
2022-08-19T12:55:09.632Z,25.63
2022-08-19T12:57:37.307Z,25.37
2022-08-19T13:00:14.947Z,25.23
2022-08-19T13:02:46.431Z,24.89
2022-08-19T13:05:25.489Z,24.91
2022-08-19T13:07:56.780Z,25.59
2022-08-19T13:10:28.652Z,26.33
2022-08-19T13:12:56.627Z,26.53
2022-08-19T13:15:25.262Z,26.37
2022-08-19T13:17:56.595Z,26.16
2022-08-19T13:20:24.398Z,25.71
2022-08-19T13:22:52.478Z,25.73
2022-08-19T13:25:20.686Z,25.42
2022-08-19T13:27:50.402Z,25.27
2022-08-19T13:30:36.771Z,25.07
2022-08-19T13:33:15.517Z,24.98
2022-08-19T13:35:57.854Z,24.73
2022-08-19T13:38:26.270Z,24.69
2022-08-19T13:40:55.502Z,24.66
2022-08-19T13:43:27.380Z,24.47
2022-08-19T13:45:57.289Z,24.47
2022-08-19T13:48:27.385Z,24.46
2022-08-19T13:50:55.471Z,24.33
2022-08-19T13:53:23.201Z,24.14
2022-08-19T13:55:51.979Z,23.82
2022-08-19T13:58:19.551Z,23.81
2022-08-19T14:00:49.151Z,23.50
2022-08-19T14:03:17.134Z,23.41
2022-08-19T14:05:44.717Z,23.39
2022-08-19T14:08:15.023Z,23.17
2022-08-19T14:10:45.042Z,22.94
2022-08-19T14:13:16.719Z,22.92
2022-08-19T14:15:44.234Z,22.80
2022-08-19T14:18:12.273Z,22.65
2022-08-19T14:20:39.917Z,22.51
2022-08-19T14:23:07.532Z,22.36
2022-08-19T14:25:35.974Z,22.39
2022-08-19T14:28:03.703Z,22.34
2022-08-19T14:30:33.722Z,22.29
2022-08-19T14:33:03.680Z,22.29
2022-08-19T14:35:35.573Z,22.55
2022-08-19T14:38:06.785Z,22.75
2022-08-19T14:40:35.701Z,22.91
2022-08-19T14:43:06.121Z,23.00
2022-08-19T14:45:37.013Z,22.86
2022-08-19T14:48:07.212Z,22.90
2022-08-19T14:50:36.968Z,22.86
2022-08-19T14:53:12.520Z,22.95
2022-08-19T14:55:44.769Z,23.32
2022-08-19T14:58:28.998Z,23.05
2022-08-19T15:00:59.862Z,23.22
2022-08-19T15:03:28.031Z,23.03
2022-08-19T15:05:56.510Z,23.21
2022-08-19T15:08:25.856Z,23.21
2022-08-19T15:10:54.134Z,23.25
2022-08-19T15:13:22.208Z,23.34
2022-08-19T15:15:50.056Z,23.34
2022-08-19T15:18:17.554Z,23.31
2022-08-19T15:20:46.688Z,23.25
2022-08-19T15:23:18.206Z,23.19
2022-08-19T15:25:45.846Z,23.30
2022-08-19T15:28:13.584Z,23.31
2022-08-19T15:30:44.308Z,23.21
2022-08-19T15:33:15.043Z,23.31
2022-08-19T15:35:44.105Z,23.12
2022-08-19T15:38:13.907Z,23.15
2022-08-19T15:40:43.188Z,23.32
2022-08-19T15:43:10.766Z,23.29
2022-08-19T15:45:40.274Z,23.36
2022-08-19T15:48:07.974Z,23.26
2022-08-19T15:50:35.865Z,23.21
2022-08-19T15:53:06.933Z,23.37
2022-08-19T15:55:37.989Z,23.55
2022-08-19T15:58:29.709Z,23.72
2022-08-19T16:01:21.112Z,23.97
2022-08-19T16:04:22.878Z,23.95
2022-08-19T16:06:54.972Z,23.91
2022-08-19T16:09:27.609Z,23.82
2022-08-19T16:12:01.491Z,23.69
2022-08-19T16:14:32.102Z,23.66
2022-08-19T16:16:59.812Z,23.50
2022-08-19T16:19:27.575Z,23.59
2022-08-19T16:21:57.247Z,23.72
2022-08-19T16:24:26.906Z,23.81
2022-08-19T16:26:56.097Z,23.83
2022-08-19T16:29:33.789Z,23.69
2022-08-19T16:32:10.014Z,23.67
2022-08-19T16:34:39.133Z,23.52
2022-08-19T16:37:06.835Z,23.37
2022-08-19T16:39:34.611Z,23.36
2022-08-19T16:42:02.439Z,23.25
2022-08-19T16:44:30.527Z,23.16
2022-08-19T16:47:00.029Z,23.07
2022-08-19T16:49:54.366Z,22.93
2022-08-19T16:52:19.140Z,22.92
2022-08-19T16:54:47.401Z,22.77
2022-08-19T16:57:15.065Z,22.50
2022-08-19T16:59:49.031Z,22.33
2022-08-19T17:02:22.671Z,22.20
2022-08-19T17:04:57.623Z,22.04
2022-08-19T17:07:33.172Z,22.05
2022-08-19T17:10:02.018Z,21.99
2022-08-19T17:12:32.335Z,22.01
2022-08-19T17:15:02.563Z,21.88
2022-08-19T17:17:31.664Z,21.80
2022-08-19T17:20:00.622Z,21.79
2022-08-19T17:22:28.879Z,21.79
2022-08-19T17:24:58.351Z,21.78
2022-08-19T17:27:32.013Z,21.76
2022-08-19T17:30:01.122Z,21.69
2022-08-19T17:32:29.015Z,21.66
2022-08-19T17:34:56.807Z,21.68
2022-08-19T17:37:24.466Z,21.64
2022-08-19T17:39:52.072Z,21.67
2022-08-19T17:42:20.334Z,21.63
2022-08-19T17:44:50.651Z,21.62
2022-08-19T17:47:21.118Z,21.53
2022-08-19T17:49:48.994Z,21.49
2022-08-19T17:52:16.728Z,21.47
2022-08-19T17:54:44.344Z,21.46
2022-08-19T17:57:12.418Z,21.44
2022-08-19T17:59:40.162Z,21.41
2022-08-19T18:02:10.139Z,21.41
2022-08-19T18:04:38.349Z,21.35
2022-08-19T18:07:06.337Z,21.25
2022-08-19T18:09:42.379Z,21.38
2022-08-19T18:12:16.328Z,21.35
2022-08-19T18:14:43.949Z,21.37
2022-08-19T18:17:14.231Z,21.36
2022-08-19T18:19:44.004Z,21.37
2022-08-19T18:22:39.412Z,21.34
2022-08-19T18:25:12.477Z,21.34
2022-08-19T18:27:41.260Z,21.28
2022-08-19T18:30:10.445Z,21.28
2022-08-19T18:32:39.732Z,21.19
2022-08-19T18:35:14.624Z,21.14
2022-08-19T18:37:44.176Z,21.15
2022-08-19T18:40:34.838Z,21.11
2022-08-19T18:43:20.168Z,21.06
2022-08-19T18:46:07.186Z,21.02
2022-08-19T18:48:52.186Z,20.96
2022-08-19T18:51:20.035Z,20.92
2022-08-19T18:53:50.495Z,20.87
2022-08-19T18:56:23.851Z,20.85
2022-08-19T18:58:51.330Z,20.80
2022-08-19T19:01:22.938Z,20.78
2022-08-19T19:03:53.371Z,20.73
2022-08-19T19:06:24.112Z,20.74
2022-08-19T19:08:54.065Z,20.74
2022-08-19T19:11:34.028Z,20.76
2022-08-19T19:14:03.094Z,20.70
2022-08-19T19:16:32.154Z,20.74
2022-08-19T19:19:00.322Z,20.71
2022-08-19T19:21:30.850Z,20.70
2022-08-19T19:24:02.489Z,20.67
2022-08-19T19:26:30.019Z,20.65
2022-08-19T19:28:57.525Z,20.63
2022-08-19T19:31:27.427Z,20.56
2022-08-19T19:33:56.866Z,20.50
2022-08-19T19:36:24.454Z,20.48
2022-08-19T19:38:52.512Z,20.43
2022-08-19T19:41:23.296Z,20.40
2022-08-19T19:44:10.123Z,20.35
2022-08-19T19:46:42.331Z,20.36
2022-08-19T19:49:10.526Z,20.33
2022-08-19T19:51:39.453Z,20.29
2022-08-19T19:54:13.540Z,20.25
2022-08-19T19:56:45.359Z,20.22
2022-08-19T19:59:13.040Z,20.19
2022-08-19T20:01:40.978Z,20.18
2022-08-19T20:04:11.875Z,20.15
2022-08-19T20:06:39.582Z,20.17
2022-08-19T20:09:10.573Z,20.13
2022-08-19T20:11:44.294Z,20.13
2022-08-19T20:14:17.866Z,20.13
2022-08-19T20:16:46.978Z,20.14
2022-08-19T20:19:21.105Z,20.14
2022-08-19T20:21:51.502Z,20.09
2022-08-19T20:24:32.418Z,20.06
2022-08-19T20:27:01.340Z,20.05
2022-08-19T20:29:38.062Z,20.05
2022-08-19T20:32:06.218Z,20.03
2022-08-19T20:34:33.818Z,19.98
2022-08-19T20:37:01.373Z,20.05
2022-08-19T20:39:28.940Z,20.07
2022-08-19T20:41:56.628Z,20.05
2022-08-19T20:44:25.791Z,20.08
2022-08-19T20:46:56.768Z,20.08
2022-08-19T20:49:27.194Z,20.05
2022-08-19T20:51:56.128Z,19.99
2022-08-19T20:54:24.352Z,19.98
2022-08-19T20:56:52.892Z,19.97
2022-08-19T20:59:21.325Z,19.97
2022-08-19T21:01:51.992Z,19.96
2022-08-19T21:04:22.263Z,19.98
2022-08-19T21:06:51.388Z,19.93
2022-08-19T21:09:19.032Z,20.00
2022-08-19T21:11:47.006Z,19.95
2022-08-19T21:14:14.801Z,20.00
2022-08-19T21:16:42.310Z,19.98
2022-08-19T21:19:09.871Z,20.00
2022-08-19T21:21:37.562Z,20.02
2022-08-19T21:24:05.543Z,20.03
2022-08-19T21:26:33.281Z,20.03
2022-08-19T21:29:01.075Z,20.05
2022-08-19T21:31:28.611Z,20.02
2022-08-19T21:33:56.119Z,20.02
2022-08-19T21:36:23.604Z,20.05
2022-08-19T21:38:51.202Z,20.01
2022-08-19T21:41:18.721Z,20.07
2022-08-19T21:43:46.205Z,20.05
2022-08-19T21:46:13.710Z,20.04
2022-08-19T21:48:41.910Z,20.05
2022-08-19T21:51:09.618Z,20.02
2022-08-19T21:53:37.096Z,19.99
2022-08-19T21:56:07.086Z,20.03
2022-08-19T21:58:36.485Z,20.01
2022-08-19T22:01:06.323Z,20.00
2022-08-19T22:03:35.414Z,20.00
2022-08-19T22:06:02.960Z,20.00
2022-08-19T22:08:31.384Z,20.01
2022-08-19T22:11:00.124Z,20.00
2022-08-19T22:13:28.933Z,19.97
2022-08-19T22:15:56.468Z,19.98
2022-08-19T22:18:24.535Z,19.98
2022-08-19T22:20:52.050Z,19.99
2022-08-19T22:23:19.660Z,19.99
2022-08-19T22:25:48.222Z,19.98
2022-08-19T22:28:19.055Z,19.96
2022-08-19T22:30:55.967Z,19.95
2022-08-19T22:33:25.642Z,19.96
2022-08-19T22:35:53.710Z,19.94
2022-08-19T22:38:21.249Z,19.73
2022-08-19T22:40:51.053Z,19.91
2022-08-19T22:43:21.997Z,19.90
2022-08-19T22:45:51.597Z,19.91
2022-08-19T22:48:23.273Z,19.88
2022-08-19T22:51:05.417Z,19.86
2022-08-19T22:53:34.264Z,19.84
2022-08-19T22:56:01.785Z,19.82
2022-08-19T22:58:29.706Z,19.80
2022-08-19T23:00:58.035Z,19.77
2022-08-19T23:03:26.473Z,19.80
2022-08-19T23:05:56.023Z,19.76
2022-08-19T23:08:25.224Z,19.78
2022-08-19T23:10:52.909Z,19.74
2022-08-19T23:13:20.709Z,19.72
2022-08-19T23:15:48.384Z,19.79
2022-08-19T23:18:16.047Z,19.79
2022-08-19T23:20:44.962Z,19.73
2022-08-19T23:23:18.680Z,19.79
2022-08-19T23:25:48.166Z,19.81
2022-08-19T23:28:33.208Z,19.75
2022-08-19T23:31:01.918Z,19.77
2022-08-19T23:33:41.097Z,19.79
2022-08-19T23:36:20.965Z,19.77
2022-08-19T23:38:52.042Z,19.80
2022-08-19T23:41:21.863Z,19.81
2022-08-19T23:43:50.851Z,19.81
2022-08-19T23:46:27.528Z,19.79
2022-08-19T23:48:56.269Z,19.78
2022-08-19T23:51:24.645Z,19.74
2022-08-19T23:53:52.275Z,19.74
2022-08-19T23:56:19.824Z,19.76
2022-08-19T23:58:49.405Z,19.74
